Tiempo atmosférico en la estación meteorológica de Don Benito, Badajoz (273 m.)

Fecha
DESCASC
Temp. máxima en grados centígrados (hora)
DESCASC
Temp. mínima en grados centígrados (hora)
DESCASC
Temp. media en grados centígrados
DESCASC
Racha de viento máxima en m/sg (hora)
DESCASC
Velocidad máxima media en intervalos de 10 minutos(hora)
DESCASC
Precipitaciones diarias en mm
DESCASC
Precipitaciones de 00:00 a 06:00 en mm
DESCASC
Precipitaciones de 06:00 a 12:00 en mm
DESCASC
Precipitaciones de 12:00 a 18:00 en mm
DESCASC
Precipitaciones de 18:00 a 24:00 en mm
DESCASC
17-08-2017 38.9 (20:00) 18.7 (08:10) 28.8 5 (00:30) 2.78 (00:30) 0 0 0 0 0
16-08-2017 37.2 (18:40) 16.6 (08:10) 26.9 6.11 (16:30) 2.78 (10:50) 0 0 0 0 0
15-08-2017 37 (18:10) 18.8 (00:00) 27.9 8.33 (19:10) 3.89 (19:20) 0 0 0 0 0
14-08-2017 36.9 (19:00) 21.1 (07:50) 29 6.39 (13:10) 2.5 (13:10) 0 0 0 0 0
13-08-2017 37.1 (17:30) 17.8 (00:00) 27.4 5.83 (16:50) 2.5 (15:40) 0 0 0 0 0
12-08-2017 36.3 (17:00) 17.3 (00:00) 26.8 7.22 (16:10) 3.06 (16:10) 0 0 0 0 0
11-08-2017 35.1 (18:40) 15.4 (00:00) 25.2 8.61 (15:50) 2.5 (14:40) 0 0 0 0 0
10-08-2017 32.6 (18:50) 17.8 (00:00) 25.2 8.61 (04:30) 3.61 (04:10) 0 0 0 0 0
09-08-2017 32.5 (17:50) 14.5 (00:00) 23.5 8.61 (15:40) 3.89 (09:20) 0 0 0 0 0
08-08-2017 32.4 (16:40) 15.2 (00:00) 23.8 8.33 (14:20) 3.89 (17:10) 0 0 0 0 0
07-08-2017 37.6 (16:50) 18.9 (00:00) 28.2 10 (18:30) 3.89 (18:50) 0 0 0 0 0
06-08-2017 38.1 (18:20) 17.5 (00:00) 27.8 8.33 (01:10) 3.89 (01:10) 0 0 0 0 0
05-08-2017 40.5 (16:30) 21.9 (00:00) 31.2 8.89 (17:40) 4.72 (18:40) 0 0 0 0 0
04-08-2017 42.2 (19:40) 21.9 (00:00) 32.1 5 (06:40) 2.5 (09:30) 0 0 0 0 0
03-08-2017 39.2 (20:10) 17.2 (00:00) 28.2 6.11 (04:40) 3.33 (04:30) 0 0 0 0 0
02-08-2017 36.6 (19:30) 15.9 (00:00) 26.2 6.39 (06:10) 2.78 (04:40) 0 0 0 0 0
01-08-2017 32.9 (18:40) 17.3 (00:00) 25.1 7.22 (06:20) 3.61 (06:30) 0 0 0 0 0
31-07-2017 33 (16:20) 15.8 (00:00) 24.4 12.22 (21:20) 5.56 (21:10) 0 0 0 0 0
30-07-2017 38.4 (18:50) 19.6 (00:00) 29 6.67 (21:00) 3.33 (20:50) 0 0 0 0 0
29-07-2017 39.1 (17:30) 19.3 (00:00) 29.2 7.78 (17:30) 3.61 (18:00) 0 0 0 0 0
28-07-2017 40.2 (18:00) 19 (00:00) 29.6 7.22 (18:30) 3.61 (18:00) 0 0 0 0 0
27-07-2017 -- (--) -- (--) -- -- (--) -- (--) 0 0 0 0 0
26-07-2017 -- (--) -- (--) -- -- (--) -- (--) 0 0 0 0 0
25-07-2017 -- (--) -- (--) -- -- (--) -- (--) 0 0 0 0 0
24-07-2017 36.5 (17:30) 19.4 (00:00) 27.9 7.5 (13:50) 3.61 (10:20) 0 0 0 0 0
23-07-2017 37.1 (19:10) 16.8 (00:00) 26.9 6.39 (17:10) 3.33 (04:40) 0 0 0 0 0
22-07-2017 34.5 (19:00) 15.4 (00:00) 24.9 6.67 (02:30) 3.33 (02:30) 0 0 0 0 0

Gráficas

Temp. máximas Temp. mínimas Temp. medias Precipitaciones Rachas de viento máximas Velocidades máximas media en intervalos de 10 minutos

Datos horarios

Fecha y hora oficial Temperatura (ºC) Velocidad del viento (km/h) Dirección del viento Racha (km/h) Dirección de racha Precipitación (mm) Presión (hPa) Tendencia (hPa) Humedad (%)
2017-08-20 23:00:00 30.9 0 Calma 7 Nordeste 0 982.1 0.6 27
2017-08-20 22:00:00 32.2 2 Nordeste 11 Nordeste 0 981.8 -0.2 25
2017-08-20 21:00:00 35.3 6 Nordeste 17 Nordeste 0 981.5 -1 21
2017-08-20 20:00:00 38.8 5 Nordeste 20 Nordeste 0 981.5 -1.5 14
2017-08-20 19:00:00 39.7 6 Nordeste 23 Norte 0 982 -1.7 12
2017-08-20 18:00:00 39.6 8 Norte 25 Norte 0 982.5 -1.8 15
2017-08-20 17:00:00 39.5 10 Norte 26 Noroeste 0 983 -1.8 15
2017-08-20 16:00:00 39.9 6 Norte 22 Norte 0 983.7 -1.5 17
2017-08-20 15:00:00 39.2 5 Nordeste 17 Este 0 984.3 -1.2 17
2017-08-20 14:00:00 38.2 8 Este 23 Este 0 984.8 -0.8 17
2017-08-20 13:00:00 36.2 9 Este 23 Nordeste 0 985.2 -0.1 16
2017-08-20 12:00:00 34.3 8 Nordeste 20 Este 0 985.5 0.7 21
2017-08-20 11:00:00 31.6 8 Este 17 Este 0 985.6 1.5 21
2017-08-20 10:00:00 26.8 3 Nordeste 8 Nordeste 0 985.3 1.8 36
2017-08-20 09:00:00 22.1 3 Norte 8 Nordeste 0 984.8 1.4 54
2017-08-20 08:00:00 20.9 2 Sur 3 Nordeste 0 984.1 0.9 55
2017-08-20 07:00:00 21.3 0 Calma 6 Sudoeste 0 983.5 0.4 42
2017-08-20 06:00:00 22.7 0 Calma 7 Norte 0 983.4 0.3 48
2017-08-20 05:00:00 23.7 2 Norte 5 Nordeste 0 983.2 -0.1 43
2017-08-20 04:00:00 24.5 2 Nordeste 7 Noroeste 0 983.1 -0.2 35
2017-08-20 03:00:00 25.7 2 Sudeste 7 Sudoeste 0 983.1 0 29
2017-08-20 02:00:00 26.4 2 Sudoeste 5 Sur 0 983.3 0.5 34
2017-08-20 01:00:00 27.6 2 Sur 5 Sudoeste 0 983.3 1.2 31
2017-08-20 00:00:00 28.5 3 Sur 7 Noroeste 0 983.1 1.4 33
2017-08-19 23:00:00 29.4 0 Calma 13 Noroeste 0 982.8 1.1 31
2017-08-19 22:00:00 31.6 4 Sudoeste 7 Sudoeste 0 982.1 0.2 28
2017-08-19 21:00:00 34.4 0 Calma 8 Noroeste 0 981.7 -0.5 20
2017-08-19 20:00:00 38.7 3 Oeste 15 Oeste 0 981.7 -0.9 13
2017-08-19 19:00:00 39.7 6 Oeste 17 Oeste 0 981.9 -1.2 12
2017-08-19 18:00:00 39.8 4 Oeste 14 Oeste 0 982.2 -1.3 11
2017-08-19 17:00:00 38.1 6 Norte 15 Noroeste 0 982.6 -1.3 9
2017-08-19 16:00:00 37.4 7 Noroeste 19 Noroeste 0 983.1 -1.2 15
2017-08-19 15:00:00 35.4 8 Noroeste 17 Noroeste 0 983.5 -0.9 24
2017-08-19 14:00:00 33.2 4 Noroeste 14 Noroeste 0 983.9 -0.5 27
2017-08-19 13:00:00 30.7 6 Noroeste 16 Noroeste 0 984.3 0.1 32
2017-08-19 12:00:00 29 5 Oeste 15 Oeste 0 984.4 0.3 36
2017-08-19 11:00:00 26.2 8 Oeste 18 Sudoeste 0 984.4 0.8 46
2017-08-19 10:00:00 24.4 10 Sudoeste 20 Sudoeste 0 984.2 1.1 52
2017-08-19 09:00:00 21.2 8 Sudoeste 15 Sudoeste 0 984.1 1.1 65
2017-08-19 08:00:00 20.5 8 Sudoeste 16 Sudoeste 0 983.6 0.4 67
2017-08-19 07:00:00 21.3 9 Sudoeste 21 Sudoeste 0 983.1 -0.1 64
2017-08-19 06:00:00 21.6 8 Sudoeste 21 Sudoeste 0 983 -0.1 63
2017-08-19 05:00:00 22.4 10 Sudoeste 20 Sudoeste 0 983.2 0 59
2017-08-19 04:00:00 23.3 8 Sudoeste 18 Sudoeste 0 983.2 0.1 54
2017-08-19 03:00:00 24.1 8 Sudoeste 18 Sudoeste 0 983.1 0.4 50
2017-08-19 02:00:00 24.4 9 Sudoeste 15 Sudoeste 0 983.2 0.7 46
2017-08-19 01:00:00 25.4 7 Sudoeste 15 Sudoeste 0 983.1 1.1 42
2017-08-19 00:00:00 27.1 8 Sudoeste 15 Sudoeste 0 982.7 0.8 33
2017-08-18 23:00:00 29.1 6 Sudoeste 13 Sudoeste 0 982.5 0.7 30
2017-08-18 22:00:00 30.7 2 Oeste 6 Oeste 0 982 0.1 31
2017-08-18 21:00:00 33.7 3 Noroeste 14 Sudoeste 0 981.9 -0.1 25
2017-08-18 20:00:00 37.7 7 Oeste 22 Oeste 0 981.8 -0.7 16
2017-08-18 19:00:00 39.6 9 Oeste 24 Sudoeste 0 981.9 -1.4 14
2017-08-18 18:00:00 40 10 Sudoeste 23 Sudoeste 0 982 -1.7 13
2017-08-18 17:00:00 39 9 Oeste 25 Noroeste 0 982.5 -1.7 15
2017-08-18 16:00:00 37.8 8 Noroeste 21 Oeste 0 983.3 -1.4 19
2017-08-18 15:00:00 35.7 10 Noroeste 21 Noroeste 0 983.7 -1.4 21
2017-08-18 14:00:00 34.3 6 Oeste 15 Noroeste 0 984.2 -0.9 26
2017-08-18 13:00:00 34 4 Sudoeste 12 Sur 0 984.7 -0.5 24
2017-08-18 12:00:00 30.1 5 Oeste 15 Sudoeste 0 985.1 -0.1 31
2017-08-18 11:00:00 27.4 7 Sudoeste 15 Oeste 0 985.1 0.5 39
2017-08-18 10:00:00 24.1 8 Sudoeste 18 Oeste 0 985.2 1.2 48
2017-08-18 09:00:00 20.5 7 Sudoeste 13 Oeste 0 985.2 1.7 62
2017-08-18 08:00:00 20 4 Sudoeste 13 Sudoeste 0 984.6 1 63
2017-08-18 07:00:00 20.8 7 Sudoeste 16 Sudoeste 0 984 0.2 59
2017-08-18 06:00:00 21.7 8 Sudoeste 19 Sudoeste 0 983.5 -0.5 56
2017-08-18 05:00:00 22.8 7 Sudoeste 21 Sudoeste 0 983.6 -0.5 53
2017-08-18 04:00:00 24 9 Sudoeste 19 Oeste 0 983.8 -0.1 50
2017-08-18 03:00:00 25.1 10 Sudoeste 17 Sudoeste 0 984 0.3 45
2017-08-18 02:00:00 26 8 Sudoeste 13 Sudoeste 0 984.1 0.6 37
2017-08-18 01:00:00 27 7 Sudoeste 13 Sudoeste 0 983.9 1 34
2017-08-18 00:00:00 27.8 5 Sudoeste 9 Sur 0 983.7 0.7 33
2017-08-17 23:00:00 29.2 5 Sudoeste 8 Oeste 0 983.5 0.4 29
2017-08-17 22:00:00 30.7 4 Sudoeste 8 Sudoeste 0 982.9 -0.5 28
2017-08-17 21:00:00 33.2 0 Calma 8 Sudoeste 0 983 -0.7 23
2017-08-17 20:00:00 38.9 5 Sudoeste 14 Noroeste 0 983.1 -1.3 13
2017-08-17 19:00:00 37.8 6 Oeste 17 Oeste 0 983.4 -1.4 14
2017-08-17 18:00:00 37.4 6 Oeste 17 Oeste 0 983.7 -1.7 14
2017-08-17 17:00:00 36.9 5 Noroeste 17 Noroeste 0 984.4 -1.6 16
2017-08-17 16:00:00 36.3 5 Noroeste 13 Norte 0 984.8 -1.7 18
2017-08-17 15:00:00 34.4 5 Noroeste 18 Noroeste 0 985.4 -1.4 20
2017-08-17 14:00:00 33.1 4 Noroeste 13 Noroeste 0 986 -0.8 25
2017-08-17 13:00:00 30.6 4 Oeste 10 Noroeste 0 986.5 -0.3 30
2017-08-17 12:00:00 28 5 Oeste 13 Oeste 0 986.8 0.2 36
2017-08-17 11:00:00 25.2 7 Oeste 16 Oeste 0 986.8 0.8 44
2017-08-17 10:00:00 22.7 5 Oeste 15 Sudoeste 0 986.8 1 51
2017-08-17 09:00:00 19.9 6 Sudoeste 14 Oeste 0 986.6 1.1 59
2017-08-17 08:00:00 18.8 6 Sudoeste 13 Oeste 0 986 0.6 63
2017-08-17 07:00:00 19.1 6 Sudoeste 12 Sudoeste 0 985.8 0.5 60
2017-08-17 06:00:00 20.1 6 Sudoeste 15 Sudoeste 0 985.5 0 58
2017-08-17 05:00:00 21.2 7 Sudoeste 15 Oeste 0 985.4 -0.1 53
2017-08-17 04:00:00 22.2 6 Sudoeste 14 Sudoeste 0 985.3 -0.3 46
2017-08-17 03:00:00 22.7 6 Sudoeste 14 Sudoeste 0 985.5 -0.2 43
2017-08-17 02:00:00 23.2 8 Sudoeste 14 Sudoeste 0 985.5 -0.1 42
2017-08-17 01:00:00 24.8 5 Sudoeste 18 Sudoeste 0 985.6 0.2 34
2017-08-17 00:00:00 25.6 8 Sudoeste 13 Sur 0 985.7 0.5 28
2017-08-16 23:00:00 26.9 2 Sur 12 Oeste 0 985.6 0.5 30
2017-08-16 22:00:00 28.7 4 Sudoeste 12 Sudoeste 0 985.4 0.3 27
2017-08-16 21:00:00 33.3 5 Sudoeste 15 Sudoeste 0 985.2 -0.2 17
2017-08-16 20:00:00 36.4 8 Sudoeste 20 Sudoeste 0 985.1 -0.7 14
2017-08-16 19:00:00 36.9 7 Sudoeste 18 Oeste 0 985.1 -1.3 13
2017-08-16 18:00:00 35.9 7 Oeste 20 Sudoeste 0 985.4 -1.6 15
2017-08-16 17:00:00 36.1 8 Sudoeste 22 Sudoeste 0 985.8 -1.8 16
2017-08-16 16:00:00 35.3 7 Sudoeste 20 Sudoeste 0 986.4 -1.7 18
2017-08-16 15:00:00 33.6 8 Oeste 19 Sudoeste 0 987 -1.3 21
2017-08-16 14:00:00 30.2 5 Noroeste 16 Noroeste 0 987.6 -0.7 28
2017-08-16 13:00:00 28 7 Oeste 15 Sudoeste 0 988.1 0 33
2017-08-16 12:00:00 26.1 6 Sudoeste 16 Oeste 0 988.3 0.4 35
2017-08-16 11:00:00 23.5 8 Oeste 18 Oeste 0 988.3 1 45
2017-08-16 10:00:00 21.5 6 Sudoeste 20 Sudoeste 0 988.1 0.9 51
2017-08-16 09:00:00 18 9 Sudoeste 17 Sudoeste 0 987.9 1.1 64
2017-08-16 08:00:00 16.7 8 Sudoeste 14 Sudoeste 0 987.3 0.6 69
2017-08-16 07:00:00 17.3 8 Sudoeste 15 Sudoeste 0 987.2 0.4 67
2017-08-16 06:00:00 18.6 8 Sudoeste 16 Oeste 0 986.8 0.1 62
2017-08-16 05:00:00 19.4 8 Sudoeste 20 Sudoeste 0 986.7 0 58
2017-08-16 04:00:00 20.7 9 Sudoeste 17 Sudoeste 0 986.8 0.1 51
2017-08-16 03:00:00 21.4 8 Sudoeste 20 Sudoeste 0 986.7 0.2 50
2017-08-16 02:00:00 22.8 6 Sudoeste 18 Oeste 0 986.7 0.6 42
2017-08-16 01:00:00 23.2 5 Sudoeste 15 Sudoeste 0 986.7 1.3 34
2017-08-16 00:00:00 24.1 4 Sudoeste 12 Sudoeste 0 986.5 1.8 31
2017-08-15 23:00:00 25.9 5 Sudoeste 10 Sur 0 986.1 2 29
2017-08-15 22:00:00 27.6 4 Sudoeste 19 Sudoeste 0 985.4 1.4 29
2017-08-15 21:00:00 31.9 9 Sudoeste 23 Oeste 0 984.7 0.4 20
2017-08-15 20:00:00 35.2 10 Oeste 30 Sudoeste 0 984.1 -0.5 17
2017-08-15 19:00:00 36.7 12 Sudoeste 28 Sudoeste 0 984 -1 14
2017-08-15 18:00:00 36.7 12 Oeste 24 Oeste 0 984.3 -1 14
2017-08-15 17:00:00 36.6 12 Sudoeste 24 Sudoeste 0 984.6 -1 16
2017-08-15 16:00:00 34.9 9 Oeste 27 Oeste 0 985 -0.9 20
2017-08-15 15:00:00 33.7 9 Sudoeste 27 Sudoeste 0 985.3 -0.7 20
2017-08-15 14:00:00 32.2 8 Oeste 20 Oeste 0 985.6 -0.3 22
2017-08-15 13:00:00 29.7 9 Oeste 22 Sudoeste 0 985.9 0.1 30
2017-08-15 12:00:00 26.5 6 Oeste 18 Oeste 0 986 0.7 42
2017-08-15 11:00:00 24.8 6 Sudoeste 19 Oeste 0 985.9 1.3 46
2017-08-15 10:00:00 21.5 5 Oeste 11 Sudoeste 0 985.8 1.8 60
2017-08-15 09:00:00 19.7 5 Sudoeste 10 Sudoeste 0 985.3 1.7 66
2017-08-15 08:00:00 19.4 5 Sudoeste 14 Sudoeste 0 984.6 1.3 65
2017-08-15 07:00:00 20 7 Sudoeste 17 Sudoeste 0 984 0.8 60
2017-08-15 06:00:00 20.8 6 Sudoeste 14 Sudoeste 0 983.6 0.8 53
2017-08-15 05:00:00 22 6 Sudoeste 15 Sudoeste 0 983.3 0.7 49
2017-08-15 04:00:00 23.1 5 Sudoeste 18 Oeste 0 983.2 0.7 45
2017-08-15 03:00:00 24 7 Sudoeste 19 Oeste 0 982.8 0.7 39
2017-08-15 02:00:00 24.9 6 Sudoeste 16 Sudoeste 0 982.6 1.1 35
2017-08-15 01:00:00 25.7 7 Sudoeste 12 Sudoeste 0 982.5 1.9 34
2017-08-15 00:00:00 27.2 5 Sudoeste 12 Oeste 0 982.1 2 33
2017-08-14 23:00:00 28.8 6 Sudoeste 12 Sudoeste 0 981.5 1.8 30
2017-08-14 22:00:00 30.9 5 Sudoeste 12 Sudoeste 0 980.6 0.8 31
2017-08-14 21:00:00 34.2 6 Oeste 15 Sudoeste 0 980.1 0 24
2017-08-14 20:00:00 35.9 4 Norte 14 Norte 0 979.7 -0.7 25
2017-08-14 19:00:00 36 8 Norte 20 Nordeste 0 979.8 -1.1 21
2017-08-14 18:00:00 36.5 8 Norte 21 Norte 0 980.1 -1.5 21
2017-08-14 17:00:00 35.9 9 Norte 18 Norte 0 980.4 -1.8 23
2017-08-14 16:00:00 35.5 6 Norte 20 Norte 0 980.9 -1.7 26
2017-08-14 15:00:00 34.2 9 Norte 21 Noroeste 0 981.6 -1.3 28
2017-08-14 14:00:00 32.5 9 Norte 23 Norte 0 982.2 -0.5 28
2017-08-14 13:00:00 31.8 6 Norte 15 Noroeste 0 982.6 0 28
2017-08-14 12:00:00 30.1 4 Norte 12 Norte 0 982.9 0.4 30
2017-08-14 11:00:00 27.6 4 Norte 9 Norte 0 982.7 0.5 37
2017-08-14 10:00:00 24.4 4 Norte 11 Noroeste 0 982.6 1.1 45
2017-08-14 09:00:00 22.2 3 Nordeste 9 Nordeste 0 982.5 1.5 43
2017-08-14 08:00:00 21.3 4 Nordeste 10 Nordeste 0 982.2 1.2 44
2017-08-14 07:00:00 21.5 3 Norte 8 Norte 0 981.5 0.7 45
2017-08-14 06:00:00 22.4 3 Sudeste 8 Sur 0 981 -0.1 37
2017-08-14 05:00:00 23 4 Sudeste 16 Sur 0 981 0.2 31
2017-08-14 04:00:00 23.5 4 Sur 6 Sur 0 980.8 -0.2 35
2017-08-14 03:00:00 24.3 3 Nordeste 9 Nordeste 0 981.1 0.3 34
2017-08-14 02:00:00 25 2 Noroeste 8 Sudeste 0 980.8 0.1 30
2017-08-14 01:00:00 25.7 5 Sudeste 17 Sudoeste 0 981 0.8 26
2017-08-14 00:00:00 26.7 2 Noroeste 8 Sur 0 980.8 0.7 26
2017-08-13 23:00:00 29.3 2 Sur 5 Este 0 980.7 0.6 24
2017-08-13 22:00:00 30.2 0 Calma 6 Norte 0 980.2 -0.2 24
2017-08-13 21:00:00 33.3 4 Norte 14 Norte 0 980.1 -0.6 18
2017-08-13 20:00:00 35.9 6 Norte 17 Norte 0 980.1 -1.1 14
2017-08-13 19:00:00 36.7 6 Norte 20 Norte 0 980.4 -1.5 14
2017-08-13 18:00:00 36.5 9 Norte 20 Noroeste 0 980.7 -1.9 14
2017-08-13 17:00:00 36.5 9 Norte 21 Norte 0 981.2 -1.9 14
2017-08-13 16:00:00 35.9 8 Norte 19 Norte 0 981.9 -1.8 19
2017-08-13 15:00:00 35 7 Norte 20 Norte 0 982.6 -1.6 22
2017-08-13 14:00:00 33.5 8 Norte 18 Norte 0 983.1 -1.2 23
2017-08-13 13:00:00 31.7 7 Norte 13 Norte 0 983.7 -0.6 25
2017-08-13 12:00:00 30.1 4 Norte 13 Norte 0 984.2 0.2 26
2017-08-13 11:00:00 27.2 6 Norte 12 Norte 0 984.3 0.8 31
2017-08-13 10:00:00 24.6 3 Nordeste 10 Nordeste 0 984.3 1.2 33
2017-08-13 09:00:00 19.6 3 Norte 11 Norte 0 984 1 46
2017-08-13 08:00:00 18.2 4 Sudeste 9 Noroeste 0 983.5 0.4 38
2017-08-13 07:00:00 19.6 4 Sudeste 13 Sudeste 0 983.1 -0.1 31
2017-08-13 06:00:00 19.4 3 Sur 7 Sur 0 983 -0.5 45
2017-08-13 05:00:00 20.4 2 Sur 11 Sur 0 983.1 -0.8 32
2017-08-13 04:00:00 22 4 Nordeste 8 Noroeste 0 983.2 -0.5 31
2017-08-13 03:00:00 22.6 0 Calma 6 Nordeste 0 983.5 -0.3 28
2017-08-13 02:00:00 23.4 4 Sudeste 18 Sudoeste 0 983.9 0.1 20
2017-08-13 01:00:00 24.3 2 Sudeste 5 Este 0 983.7 0.2 28
2017-08-13 00:00:00 25.8 3 Nordeste 9 Norte 0 983.8 0.3 29
2017-08-12 23:00:00 27.6 0 Calma 3 Norte 0 983.8 0.1 21
2017-08-12 22:00:00 29.2 0 Calma 6 Nordeste 0 983.5 -0.4 22
2017-08-12 21:00:00 32.7 2 Norte 11 Norte 0 983.5 -0.9 14
2017-08-12 20:00:00 35.4 6 Norte 15 Norte 0 983.7 -1 11
2017-08-12 19:00:00 36.2 6 Nordeste 21 Noroeste 0 983.9 -1.5 9
2017-08-12 18:00:00 35.8 7 Norte 22 Norte 0 984.4 -1.6 9
2017-08-12 17:00:00 36.2 6 Nordeste 26 Norte 0 984.7 -1.8 10
2017-08-12 16:00:00 35.2 9 Norte 22 Norte 0 985.4 -1.4 13
2017-08-12 15:00:00 35.1 7 Nordeste 21 Norte 0 986 -1.1 14
2017-08-12 14:00:00 35 6 Nordeste 20 Norte 0 986.5 -0.6 12
2017-08-12 13:00:00 32.6 6 Nordeste 21 Nordeste 0 986.8 -0.3 14
2017-08-12 12:00:00 31.5 6 Nordeste 16 Nordeste 0 987.1 0.4 17
2017-08-12 11:00:00 28.9 4 Este 12 Este 0 987.1 0.9 16
2017-08-12 10:00:00 24.6 5 Nordeste 13 Este 0 987.1 1.2 23
2017-08-12 09:00:00 19.6 3 Nordeste 7 Nordeste 0 986.7 0.9 38
2017-08-12 08:00:00 18.3 3 Nordeste 8 Este 0 986.2 0.3 37
2017-08-12 07:00:00 17.4 3 Este 8 Sudeste 0 985.9 -0.1 35
2017-08-12 06:00:00 17.8 2 Sudeste 6 Sudeste 0 985.8 -0.1 47
2017-08-12 05:00:00 19 3 Norte 6 Nordeste 0 985.9 -0.1 42
2017-08-12 04:00:00 20.8 3 Norte 6 Nordeste 0 986 0.1 39
2017-08-12 03:00:00 20.5 0 Calma 5 Norte 0 985.9 0.2 39
2017-08-12 02:00:00 21.8 0 Calma 11 Nordeste 0 986 0.3 36
2017-08-12 01:00:00 23.5 4 Nordeste 10 Este 0 985.9 0.7 31
2017-08-12 00:00:00 24.3 3 Norte 10 Norte 0 985.7 1 33
2017-08-11 23:00:00 26 3 Norte 6 Norte 0 985.7 0.7 26
2017-08-11 22:00:00 27.4 3 Oeste 5 Oeste 0 985.2 0.1 26
2017-08-11 21:00:00 30.5 0 Calma 5 Sur 0 984.7 -0.9 20
2017-08-11 20:00:00 33.7 2 Norte 13 Oeste 0 985 -1.2 13
2017-08-11 19:00:00 33.7 8 Noroeste 17 Noroeste 0 985.1 -1.7 14
2017-08-11 18:00:00 34.1 6 Norte 19 Noroeste 0 985.6 -1.7 14
2017-08-11 17:00:00 34.4 5 Nordeste 23 Norte 0 986.2 -1.5 12
2017-08-11 16:00:00 33.3 5 Nordeste 31 Noroeste 0 986.8 -1.2 13
2017-08-11 15:00:00 31.9 9 Norte 24 Norte 0 987.3 -1.1 13
2017-08-11 14:00:00 31.9 6 Norte 23 Norte 0 987.7 -0.7 16
2017-08-11 13:00:00 30.5 9 Nordeste 23 Nordeste 0 988 -0.3 21
2017-08-11 12:00:00 28.6 6 Nordeste 17 Nordeste 0 988.4 0.1 24
2017-08-11 11:00:00 25.8 4 Norte 18 Este 0 988.4 0.4 28
2017-08-11 10:00:00 23.1 5 Este 12 Nordeste 0 988.3 0.7 24
2017-08-11 09:00:00 17.1 3 Sudeste 5 Sudoeste 0 988.3 0.7 36
2017-08-11 08:00:00 16.1 2 Norte 8 Nordeste 0 988 0.4 43
2017-08-11 07:00:00 15.8 2 Nordeste 6 Este 0 987.6 -0.1 43
2017-08-11 06:00:00 16.1 3 Nordeste 6 Nordeste 0 987.6 -0.2 36
2017-08-11 05:00:00 17 2 Sudoeste 5 Norte 0 987.6 -0.5 44
2017-08-11 04:00:00 18.2 2 Norte 7 Norte 0 987.7 -0.2 34
2017-08-11 03:00:00 18.5 0 Calma 6 Nordeste 0 987.8 0 38
2017-08-11 02:00:00 21.1 3 Este 11 Nordeste 0 988.1 0.8 27
2017-08-11 01:00:00 21.9 5 Nordeste 14 Nordeste 0 987.9 1.2 26
2017-08-11 00:00:00 22.4 3 Este 12 Norte 0 987.8 1.2 26
2017-08-10 23:00:00 23.5 3 Norte 10 Norte 0 987.3 0.8 29
2017-08-10 22:00:00 25.6 4 Norte 11 Noroeste 0 986.7 -0.1 25
2017-08-10 21:00:00 29.3 2 Norte 14 Nordeste 0 986.6 -0.6 15
2017-08-10 20:00:00 32 5 Nordeste 15 Nordeste 0 986.5 -1.1 12
2017-08-10 19:00:00 32.4 5 Nordeste 18 Nordeste 0 986.8 -1.5 9
2017-08-10 18:00:00 31.7 6 Nordeste 22 Norte 0 987.2 -1.6 14
2017-08-10 17:00:00 31.4 8 Nordeste 22 Norte 0 987.6 -1.4 15
2017-08-10 16:00:00 30.4 8 Norte 24 Norte 0 988.3 -1.2 18
2017-08-10 15:00:00 29.6 9 Norte 28 Nordeste 0 988.8 -1 17
2017-08-10 14:00:00 28.6 9 Nordeste 24 Norte 0 989 -0.4 19
2017-08-10 13:00:00 26.7 10 Nordeste 27 Norte 0 989.5 0.3 19
2017-08-10 12:00:00 25.2 9 Nordeste 28 Nordeste 0 989.8 1.2 23
2017-08-10 11:00:00 23.9 8 Nordeste 22 Nordeste 0 989.4 1.4 27
2017-08-10 10:00:00 21.9 7 Nordeste 19 Nordeste 0 989.2 1.8 32
2017-08-10 09:00:00 19 5 Nordeste 14 Este 0 988.6 1.8 40
2017-08-10 08:00:00 17.9 4 Nordeste 12 Este 0 988 1.9 42
2017-08-10 07:00:00 18 4 Nordeste 11 Norte 0 987.4 1.5 44
2017-08-10 06:00:00 18.6 2 Norte 17 Este 0 986.8 1 43
2017-08-10 05:00:00 21.1 8 Este 31 Este 0 986.1 0.9 33
2017-08-10 04:00:00 21.8 11 Este 30 Nordeste 0 985.9 1.3 33
2017-08-10 03:00:00 19.6 6 Nordeste 11 Nordeste 0 985.8 1.6 37
2017-08-10 02:00:00 18.9 4 Sudeste 10 Sur 0 985.2 1.6 41
2017-08-10 01:00:00 19.6 3 Sudoeste 10 Sudoeste 0 984.6 1.7 43
2017-08-10 00:00:00 21.1 5 Norte 16 Noroeste 0 984.2 2 34
2017-08-09 23:00:00 22.8 9 Noroeste 17 Noroeste 0 983.6 1.8 29
2017-08-09 22:00:00 24.2 5 Noroeste 22 Noroeste 0 982.9 1.1 31
2017-08-09 21:00:00 27.6 6 Noroeste 26 Noroeste 0 982.2 0 26
2017-08-09 20:00:00 30.4 7 Noroeste 26 Norte 0 981.8 -0.7 19
2017-08-09 19:00:00 31.3 8 Noroeste 27 Noroeste 0 981.8 -1.2 16
2017-08-09 18:00:00 31.2 12 Noroeste 26 Norte 0 982.2 -1.2 14
2017-08-09 17:00:00 31.7 9 Oeste 29 Oeste 0 982.5 -1.4 14
2017-08-09 16:00:00 31.9 11 Sudoeste 31 Sudoeste 0 983 -1.1 18
2017-08-09 15:00:00 30.8 12 Sudoeste 30 Sudoeste 0 983.4 -0.9 20
2017-08-09 14:00:00 29.6 10 Oeste 24 Oeste 0 983.9 -0.6 25
2017-08-09 13:00:00 27 10 Sudoeste 22 Sudoeste 0 984.1 0.1 28
2017-08-09 12:00:00 24.3 9 Sudoeste 22 Noroeste 0 984.3 0 35
2017-08-09 11:00:00 21.5 10 Oeste 24 Sudoeste 0 984.5 0.8 42
2017-08-09 10:00:00 19.1 10 Sudoeste 27 Sudoeste 0 984 0.7 50
2017-08-09 09:00:00 15.6 12 Sudoeste 24 Oeste 0 984.3 0.9 63
2017-08-09 08:00:00 14.6 9 Sudoeste 18 Sudoeste 0 983.7 0.3 67
2017-08-09 07:00:00 15 8 Sudoeste 24 Oeste 0 983.3 -0.1 67
2017-08-09 06:00:00 15.9 11 Sudoeste 24 Sudoeste 0 983.4 -0.1 63
2017-08-09 05:00:00 16.7 10 Sudoeste 25 Sudoeste 0 983.4 -0.2 61
2017-08-09 04:00:00 17.8 12 Sudoeste 23 Sudoeste 0 983.4 0.2 58
2017-08-09 03:00:00 19 12 Sudoeste 22 Sudoeste 0 983.5 0.6 53
2017-08-09 02:00:00 19.5 9 Sudoeste 20 Oeste 0 983.6 0.9 53
2017-08-09 01:00:00 20.7 9 Sudoeste 17 Sudoeste 0 983.2 0.5 46
2017-08-09 00:00:00 22.1 5 Sudoeste 11 Sudoeste 0 982.9 0.6 34
2017-08-08 23:00:00 23.8 4 Oeste 10 Oeste 0 982.7 0.5 26
2017-08-08 22:00:00 25.5 5 Oeste 12 Oeste 0 982.7 0.3 24
2017-08-08 21:00:00 28.7 4 Noroeste 17 Noroeste 0 982.3 -0.4 19
2017-08-08 20:00:00 31.5 8 Noroeste 21 Noroeste 0 982.2 -0.8 13
2017-08-08 19:00:00 32.1 11 Noroeste 23 Norte 0 982.4 -1 11
2017-08-08 18:00:00 31.6 12 Noroeste 28 Noroeste 0 982.7 -1.2 11
2017-08-08 17:00:00 31.4 12 Noroeste 25 Noroeste 0 983 -1.4 11
2017-08-08 16:00:00 31.5 7 Oeste 29 Noroeste 0 983.4 -1.1 16
2017-08-08 15:00:00 30.8 10 Sudoeste 30 Oeste 0 983.9 -0.7 24
2017-08-08 14:00:00 28.9 13 Oeste 28 Sudoeste 0 984.4 0 29
2017-08-08 13:00:00 27.3 10 Oeste 24 Oeste 0 984.5 0.2 31
2017-08-08 12:00:00 24.8 10 Oeste 24 Oeste 0 984.6 0.6 39
2017-08-08 11:00:00 22.1 10 Oeste 22 Sudoeste 0 984.4 0.7 49
2017-08-08 10:00:00 19.2 8 Sudoeste 24 Sudoeste 0 984.3 0.9 61
2017-08-08 09:00:00 16.2 11 Sudoeste 25 Oeste 0 984 0.7 72
2017-08-08 08:00:00 15.2 11 Sudoeste 23 Sudoeste 0 983.7 0.4 76
2017-08-08 07:00:00 15.4 9 Sudoeste 18 Sudoeste 0 983.4 0.1 73
2017-08-08 06:00:00 16.2 6 Sudoeste 21 Sudoeste 0 983.3 0.1 71
2017-08-08 05:00:00 17.1 7 Sudoeste 19 Sudoeste 0 983.3 0.2 67
2017-08-08 04:00:00 17.9 9 Sudoeste 20 Sudoeste 0 983.3 0.5 61
2017-08-08 03:00:00 19.1 11 Sudoeste 24 Oeste 0 983.2 0.6 55
2017-08-08 02:00:00 20.8 9 Sudoeste 21 Sudoeste 0 983.1 0.9 48
2017-08-08 01:00:00 22.4 9 Oeste 24 Oeste 0 982.8 1.4 39
2017-08-08 00:00:00 24.1 8 Oeste 21 Oeste 0 982.6 1.9 30
2017-08-07 23:00:00 26.2 7 Oeste 18 Oeste 0 982.2 1.7 24
2017-08-07 22:00:00 27.3 5 Oeste 18 Oeste 0 981.4 0.8 23
2017-08-07 21:00:00 30.3 7 Oeste 24 Oeste 0 980.7 -0.1 17
2017-08-07 20:00:00 34.2 9 Oeste 30 Oeste 0 980.5 -0.7 13
2017-08-07 19:00:00 35.9 12 Oeste 36 Oeste 0 980.6 -1 10
2017-08-07 18:00:00 36.8 10 Oeste 31 Oeste 0 980.8 -1.3 7
2017-08-07 17:00:00 36.7 12 Oeste 28 Oeste 0 981.2 -1.3 6
2017-08-07 16:00:00 35.9 10 Oeste 27 Oeste 0 981.6 -1.3 8
2017-08-07 15:00:00 34.8 12 Oeste 26 Oeste 0 982.1 -0.9 9
2017-08-07 14:00:00 32.4 8 Oeste 19 Noroeste 0 982.5 -0.6 14
2017-08-07 13:00:00 30.8 8 Oeste 18 Oeste 0 982.9 -0.5 14
2017-08-07 12:00:00 29.1 8 Oeste 18 Sudoeste 0 983 -0.2 22
2017-08-07 11:00:00 26.4 8 Sudoeste 17 Sudoeste 0 983.1 0 31
2017-08-07 10:00:00 23.6 7 Sudoeste 16 Sudoeste 0 983.4 0.7 40
2017-08-07 09:00:00 20.1 6 Sudoeste 13 Sudoeste 0 983.2 1.1 55
2017-08-07 08:00:00 18.9 4 Sudoeste 12 Sudoeste 0 983.1 0.5 57
2017-08-07 07:00:00 20.5 4 Sudoeste 11 Noroeste 0 982.7 0.2 51
2017-08-07 06:00:00 21.4 5 Noroeste 11 Oeste 0 982.1 -0.4 48
2017-08-07 05:00:00 22.8 4 Oeste 12 Sudoeste 0 982.6 0.2 41
2017-08-07 04:00:00 24.2 5 Sudoeste 16 Sudoeste 0 982.5 0.2 38
2017-08-07 03:00:00 24.4 9 Sudoeste 15 Sudoeste 0 982.5 0.6 38
2017-08-07 02:00:00 24.4 4 Sudoeste 14 Sudoeste 0 982.4 0.6 34
2017-08-07 01:00:00 25.9 7 Sur 14 Sur 0 982.3 1.1 25
2017-08-07 00:00:00 27 6 Sudoeste 10 Sudoeste 0 981.9 0.9 24
2017-08-06 23:00:00 28.4 5 Sudoeste 9 Sudoeste 0 981.8 0.9 23
2017-08-06 22:00:00 30.4 5 Sudoeste 14 Oeste 0 981.2 0 20
2017-08-06 21:00:00 34.4 6 Sudoeste 18 Oeste 0 981 -0.4 11
2017-08-06 20:00:00 37.4 6 Oeste 23 Oeste 0 980.9 -1 10
2017-08-06 19:00:00 37.6 9 Oeste 21 Oeste 0 981.2 -1.2 6
2017-08-06 18:00:00 36.9 9 Oeste 21 Oeste 0 981.4 -1.2 8
2017-08-06 17:00:00 37.2 10 Oeste 27 Noroeste 0 981.9 -1.4 10
2017-08-06 16:00:00 35.6 9 Oeste 22 Sudoeste 0 982.4 -1.3 13
2017-08-06 15:00:00 33 8 Noroeste 19 Noroeste 0 982.6 -1.3 25
2017-08-06 14:00:00 32.3 6 Sudoeste 15 Sudoeste 0 983.3 -0.5 25
2017-08-06 13:00:00 28.9 5 Oeste 13 Oeste 0 983.7 0 34
2017-08-06 12:00:00 26.4 6 Oeste 15 Sudoeste 0 983.9 0.2 41
2017-08-06 11:00:00 25 7 Sudoeste 16 Sudoeste 0 983.8 0.7 43
2017-08-06 10:00:00 21.4 7 Oeste 17 Noroeste 0 983.7 1.1 56
2017-08-06 09:00:00 18.9 6 Sudoeste 12 Sudoeste 0 983.7 1.3 64
2017-08-06 08:00:00 17.6 5 Sudoeste 13 Sudoeste 0 983.1 0.8 65
2017-08-06 07:00:00 18.4 6 Oeste 18 Sudoeste 0 982.6 0.3 62
2017-08-06 06:00:00 19.1 10 Sudoeste 19 Sudoeste 0 982.4 -0.1 59
2017-08-06 05:00:00 19.8 10 Sudoeste 21 Sudoeste 0 982.3 -0.3 57
2017-08-06 04:00:00 21 9 Sudoeste 20 Oeste 0 982.3 0 53
2017-08-06 03:00:00 22.5 8 Sudoeste 27 Sudoeste 0 982.5 0.3 51
2017-08-06 02:00:00 24 14 Sudoeste 30 Sudoeste 0 982.6 1 47
2017-08-06 01:00:00 25.5 14 Oeste 28 Sudoeste 0 982.3 1.5 41
2017-08-06 00:00:00 26.8 8 Sudoeste 17 Oeste 0 982.2 1.8 32
2017-08-05 23:00:00 28.9 10 Oeste 25 Oeste 0 981.6 1.4 24
2017-08-05 22:00:00 31.1 10 Oeste 25 Sudoeste 0 980.8 0.4 24
2017-08-05 21:00:00 34.6 12 Oeste 23 Oeste 0 980.4 -0.1 22
2017-08-05 20:00:00 38.3 12 Oeste 27 Oeste 0 980.2 -0.7 17
2017-08-05 19:00:00 39.5 13 Oeste 31 Oeste 0 980.4 -1.1 15
2017-08-05 18:00:00 39.5 13 Oeste 32 Oeste 0 980.5 -1.6 14
2017-08-05 17:00:00 40.3 12 Oeste 28 Sudoeste 0 980.9 -1.7 14
2017-08-05 16:00:00 39.7 13 Oeste 27 Oeste 0 981.5 -1.6 18
2017-08-05 15:00:00 38.2 14 Sudoeste 28 Sudoeste 0 982.1 -1.3 22
2017-08-05 14:00:00 36.6 11 Oeste 22 Sudoeste 0 982.6 -0.7 26
2017-08-05 13:00:00 33.8 8 Sudoeste 18 Oeste 0 983.1 -0.1 28
2017-08-05 12:00:00 30.8 8 Oeste 17 Sudoeste 0 983.4 0.4 38
2017-08-05 11:00:00 28.4 8 Sudoeste 21 Sudoeste 0 983.3 1 47
2017-08-05 10:00:00 26 12 Sudoeste 24 Sudoeste 0 983.2 0.9 52
2017-08-05 09:00:00 23.1 10 Sudoeste 21 Sudoeste 0 983 0.8 64
2017-08-05 08:00:00 21.9 8 Sudoeste 17 Sudoeste 0 982.3 0.3 66
2017-08-05 07:00:00 22.6 8 Sudoeste 19 Oeste 0 982.3 0 63
2017-08-05 06:00:00 23.7 9 Sudoeste 20 Sudoeste 0 982.2 0 57
2017-08-05 05:00:00 24.4 4 Sudoeste 19 Sudoeste 0 982 -0.2 53
2017-08-05 04:00:00 25.8 10 Sudoeste 22 Sudoeste 0 982.3 0.1 45
2017-08-05 03:00:00 26.3 6 Sudoeste 19 Sudoeste 0 982.2 0.1 47
2017-08-05 02:00:00 27.1 6 Sudoeste 15 Sudoeste 0 982.2 0.4 45
2017-08-05 01:00:00 28.3 6 Sudoeste 13 Sudoeste 0 982.2 1.1 42
2017-08-05 00:00:00 29.8 8 Sudoeste 13 Oeste 0 982.1 1.3 39
2017-08-04 23:00:00 31.7 4 Oeste 11 Oeste 0 981.8 1 33
2017-08-04 22:00:00 34.7 5 Sudoeste 9 Sudoeste 0 981.1 0 30
2017-08-04 21:00:00 38.4 3 Sudoeste 10 Sudoeste 0 980.8 -0.6 22
2017-08-04 20:00:00 41.8 5 Sudoeste 13 Sudoeste 0 980.8 -1.2 14
2017-08-04 19:00:00 41.3 5 Sudoeste 13 Sur 0 981.1 -1.6 17
2017-08-04 18:00:00 41.2 6 Sudoeste 15 Sudoeste 0 981.4 -2.1 18
2017-08-04 17:00:00 39.7 3 Este 16 Noroeste 0 982 -2.2 21
2017-08-04 16:00:00 37.7 5 Noroeste 14 Noroeste 0 982.7 -2.2 23
2017-08-04 15:00:00 36.5 5 Noroeste 17 Noroeste 0 983.5 -1.8 25
2017-08-04 14:00:00 34.9 7 Noroeste 17 Noroeste 0 984.2 -1 28
2017-08-04 13:00:00 33.5 4 Norte 11 Noroeste 0 984.9 -0.2 28
2017-08-04 12:00:00 31 5 Oeste 13 Sudoeste 0 985.3 0.6 36
2017-08-04 11:00:00 29.2 6 Oeste 15 Sudoeste 0 985.2 0.6 42
2017-08-04 10:00:00 27.2 8 Sudoeste 18 Oeste 0 985.1 0.6 45
2017-08-04 09:00:00 23.8 5 Sudoeste 17 Sudoeste 0 984.7 0.5 55
2017-08-04 08:00:00 22 6 Sudoeste 15 Sudoeste 0 984.6 0.4 62
2017-08-04 07:00:00 22.7 7 Sudoeste 18 Oeste 0 984.5 0.4 60
2017-08-04 06:00:00 23.4 6 Sudoeste 14 Sudoeste 0 984.2 -0.1 58
2017-08-04 05:00:00 24.4 7 Sudoeste 15 Oeste 0 984.2 -0.1 54
2017-08-04 04:00:00 25.1 5 Sudoeste 11 Sudoeste 0 984.1 -0.1 51
2017-08-04 03:00:00 25.9 3 Sudoeste 10 Sudoeste 0 984.3 0 49
2017-08-04 02:00:00 27.2 3 Sudoeste 11 Noroeste 0 984.3 0.3 44
2017-08-04 01:00:00 27.9 3 Oeste 16 Noroeste 0 984.2 0.4 42
2017-08-04 00:00:00 28.8 4 Oeste 13 Noroeste 0 984.3 0.9 33
2017-08-03 23:00:00 29.6 4 Sudoeste 8 Oeste 0 984 0.6 29
2017-08-03 22:00:00 31 4 Sudoeste 11 Oeste 0 983.8 0.1 32
2017-08-03 21:00:00 35.5 3 Sudoeste 12 Oeste 0 983.4 -0.8 19
2017-08-03 20:00:00 39.1 5 Sudoeste 16 Oeste 0 983.4 -1.3 12
2017-08-03 19:00:00 38.6 4 Oeste 17 Sudoeste 0 983.7 -1.4 12
2017-08-03 18:00:00 38.5 10 Sudoeste 19 Sudoeste 0 984.2 -1.5 12
2017-08-03 17:00:00 37.2 6 Oeste 18 Oeste 0 984.7 -1.7 14
2017-08-03 16:00:00 37.5 6 Sudoeste 16 Sudoeste 0 985.1 -1.9 14
2017-08-03 15:00:00 35.7 5 Sudoeste 15 Oeste 0 985.7 -1.5 17
2017-08-03 14:00:00 32.7 6 Oeste 14 Oeste 0 986.4 -0.9 25
2017-08-03 13:00:00 30.4 4 Sudoeste 14 Sudoeste 0 987 -0.4 31
2017-08-03 12:00:00 26.5 5 Oeste 15 Sudoeste 0 987.2 0.2 41
2017-08-03 11:00:00 24.1 7 Oeste 19 Sudoeste 0 987.3 0.8 49
2017-08-03 10:00:00 21.6 9 Oeste 17 Sudoeste 0 987.4 0.9 57
2017-08-03 09:00:00 18.6 9 Oeste 19 Sudoeste 0 987 1 69
2017-08-03 08:00:00 17.2 7 Sudoeste 17 Sudoeste 0 986.5 0.5 73
2017-08-03 07:00:00 17.6 9 Sudoeste 18 Sudoeste 0 986.5 0.5 68
2017-08-03 06:00:00 18.3 8 Sudoeste 18 Sudoeste 0 986 0.2 55
2017-08-03 05:00:00 19.9 9 Sudoeste 22 Sudoeste 0 986 0.1 44
2017-08-03 04:00:00 20.4 8 Sudoeste 16 Sudoeste 0 986 0.4 44
2017-08-03 03:00:00 21.2 7 Sudoeste 13 Sudoeste 0 985.8 0.3 39
2017-08-03 02:00:00 22.6 6 Sudoeste 12 Sudoeste 0 985.9 0.7 32
2017-08-03 01:00:00 23.6 4 Sudoeste 9 Sudoeste 0 985.6 1 32
2017-08-03 00:00:00 24.8 4 Sudoeste 8 Sudoeste 0 985.5 1.4 33
2017-08-02 23:00:00 26.5 4 Sudoeste 9 Oeste 0 985.2 1.4 31
2017-08-02 22:00:00 28.1 4 Oeste 10 Oeste 0 984.6 0.6 29
2017-08-02 21:00:00 32.9 5 Oeste 15 Oeste 0 984.1 -0.1 20
2017-08-02 20:00:00 36 6 Oeste 18 Oeste 0 983.8 -0.7 14
2017-08-02 19:00:00 36.4 8 Sudoeste 18 Oeste 0 984 -1 13
2017-08-02 18:00:00 35.9 6 Oeste 15 Noroeste 0 984.2 -1.3 14
2017-08-02 17:00:00 34.1 5 Norte 17 Norte 0 984.5 -1.5 18
2017-08-02 16:00:00 33.7 5 Noroeste 19 Noroeste 0 985 -1.5 17
2017-08-02 15:00:00 32.2 7 Noroeste 19 Noroeste 0 985.5 -1.2 20
2017-08-02 14:00:00 31.5 5 Sudoeste 15 Sudoeste 0 986 -0.6 24
2017-08-02 13:00:00 28.1 6 Oeste 13 Oeste 0 986.5 0.1 31
2017-08-02 12:00:00 25.8 5 Sudoeste 13 Noroeste 0 986.7 0.7 36
2017-08-02 11:00:00 22.4 6 Oeste 15 Sudoeste 0 986.6 0.9 44
2017-08-02 10:00:00 20.8 7 Sudoeste 17 Sudoeste 0 986.4 0.8 50
2017-08-02 09:00:00 17.3 9 Oeste 18 Oeste 0 986 0.7 61
2017-08-02 08:00:00 15.9 8 Sudoeste 17 Oeste 0 985.7 0.3 65
2017-08-02 07:00:00 16.3 7 Sudoeste 23 Oeste 0 985.6 0.2 62
2017-08-02 06:00:00 17.2 10 Oeste 18 Sudoeste 0 985.3 -0.2 58
2017-08-02 05:00:00 18.1 10 Sudoeste 18 Sudoeste 0 985.4 -0.3 53
2017-08-02 04:00:00 18.7 9 Sudoeste 18 Sudoeste 0 985.4 0.1 51
2017-08-02 03:00:00 19.6 9 Sudoeste 19 Sudoeste 0 985.5 0.6 48
2017-08-02 02:00:00 20.7 7 Sudoeste 14 Sudoeste 0 985.7 1.4 43
2017-08-02 01:00:00 21.8 7 Sudoeste 15 Sudoeste 0 985.3 1.7 38
2017-08-02 00:00:00 23.1 5 Sudoeste 15 Oeste 0 984.9 2 36
2017-08-01 23:00:00 24.9 5 Oeste 14 Oeste 0 984.3 1.8 29
2017-08-01 22:00:00 26.3 3 Sudoeste 13 Sudoeste 0 983.6 1.1 28
2017-08-01 21:00:00 30.8 6 Sudoeste 17 Oeste 0 982.9 0.2 16
2017-08-01 20:00:00 32.4 8 Oeste 21 Oeste 0 982.5 -0.3 13
2017-08-01 19:00:00 32.8 12 Sudoeste 19 Oeste 0 982.5 -0.9 14
2017-08-01 18:00:00 31.6 9 Oeste 25 Oeste 0 982.7 -0.6 19
2017-08-01 17:00:00 31.3 9 Oeste 23 Noroeste 0 982.8 -0.6 20
2017-08-01 16:00:00 31 6 Oeste 20 Oeste 0 983.4 0 22
2017-08-01 15:00:00 29.8 7 Sudoeste 19 Sudoeste 0 983.3 -0.1 24
2017-08-01 14:00:00 28 8 Sudoeste 20 Oeste 0 983.4 0.1 28
2017-08-01 13:00:00 25.9 6 Oeste 17 Oeste 0 983.4 0.2 34
2017-08-01 12:00:00 22.4 7 Oeste 19 Oeste 0 983.4 0.8 42
2017-08-01 11:00:00 20 7 Oeste 24 Sudoeste 0 983.3 1.3 50
2017-08-01 10:00:00 18.4 8 Sudoeste 20 Sudoeste 0 983.2 1.8 54
2017-08-01 09:00:00 17.6 7 Sudoeste 17 Sudoeste 0 982.6 1.5 57
2017-08-01 08:00:00 17.4 10 Sudoeste 23 Sudoeste 0 982 1.3 58
2017-08-01 07:00:00 17.8 8 Oeste 26 Sudoeste 0 981.4 0.5 57
2017-08-01 06:00:00 18.3 9 Sudoeste 22 Sudoeste 0 981.1 0.3 56
2017-08-01 05:00:00 18.9 9 Sudoeste 18 Sudoeste 0 980.7 0.1 56
2017-08-01 04:00:00 19.9 9 Sudoeste 22 Oeste 0 980.9 0.2 58
2017-08-01 03:00:00 20.6 10 Oeste 21 Sudoeste 0 980.8 0.1 52
2017-08-01 02:00:00 21 4 Sudoeste 18 Sudoeste 0 980.6 0.6 47
2017-08-01 01:00:00 21.8 9 Sudoeste 19 Sudoeste 0 980.7 2 44
2017-08-01 00:00:00 22.2 6 Oeste 22 Noroeste 0 980.7 2.8 43
2017-07-31 23:00:00 23.1 10 Oeste 25 Oeste 0 980 2.9 39
2017-07-31 22:00:00 23.9 10 Noroeste 44 Noroeste 0 978.7 1.3 36
2017-07-31 21:00:00 27.6 15 Oeste 35 Noroeste 0 977.9 0.1 25
2017-07-31 20:00:00 31.3 7 Oeste 26 Oeste 0 977.1 -1.1 13
2017-07-31 19:00:00 32.1 9 Oeste 28 Noroeste 0 977.4 -1.4 13
2017-07-31 18:00:00 31.9 11 Noroeste 26 Noroeste 0 977.8 -1.5 12
2017-07-31 17:00:00 31.6 12 Oeste 30 Noroeste 0 978.2 -1.6 13
2017-07-31 16:00:00 31.7 9 Oeste 23 Noroeste 0 978.8 -1.3 14
2017-07-31 15:00:00 31 6 Oeste 18 Sudoeste 0 979.3 -0.9 20
2017-07-31 14:00:00 28.7 8 Oeste 19 Noroeste 0 979.8 -0.7 25
2017-07-31 13:00:00 27.1 6 Oeste 19 Sudoeste 0 980.1 -0.3 30
2017-07-31 12:00:00 23.7 6 Oeste 19 Oeste 0 980.2 0.4 39
2017-07-31 11:00:00 21.3 8 Oeste 23 Oeste 0 980.5 0.8 51
2017-07-31 10:00:00 19.4 10 Oeste 20 Sudoeste 0 980.4 1 58
2017-07-31 09:00:00 17.1 6 Oeste 14 Oeste 0 979.8 0.7 69
2017-07-31 08:00:00 15.8 5 Oeste 13 Oeste 0 979.7 0.2 75
2017-07-31 07:00:00 16.7 4 Oeste 12 Oeste 0 979.4 0 70
2017-07-31 06:00:00 17.8 4 Sudoeste 22 Sudoeste 0 979.1 -0.7 65
2017-07-31 05:00:00 18.5 7 Sudoeste 29 Oeste 0 979.5 -0.5 61
2017-07-31 04:00:00 19.8 15 Sudoeste 27 Sudoeste 0 979.4 -0.5 55
2017-07-31 03:00:00 21.3 8 Sudoeste 19 Oeste 0 979.8 0.4 48
2017-07-31 02:00:00 23 5 Sudeste 15 Sudoeste 0 980 1 39
2017-07-31 01:00:00 24.6 6 Sudoeste 18 Sudoeste 0 979.9 1.8 35
2017-07-31 00:00:00 25.7 9 Sudoeste 18 Sudoeste 0 979.4 1.7 32
2017-07-30 23:00:00 27.7 4 Sudoeste 17 Oeste 0 979 1.2 29
2017-07-30 22:00:00 29.8 8 Oeste 24 Sudoeste 0 978.1 -0.2 27
2017-07-30 21:00:00 32.9 12 Oeste 24 Oeste 0 977.7 -1.3 22
2017-07-30 20:00:00 36.5 10 Oeste 24 Oeste 0 977.8 -1.9 18
2017-07-30 19:00:00 37.9 9 Oeste 21 Sudoeste 0 978.3 -2.2 13
2017-07-30 18:00:00 37.6 11 Oeste 23 Oeste 0 979 -2.1 13
2017-07-30 17:00:00 38 10 Oeste 24 Oeste 0 979.7 -1.9 14
2017-07-30 16:00:00 37.3 9 Sudoeste 23 Oeste 0 980.5 -1.5 14
2017-07-30 15:00:00 34.8 8 Sudoeste 20 Oeste 0 981.1 -1.2 19
2017-07-30 14:00:00 33.8 7 Sudoeste 20 Oeste 0 981.6 -0.9 27
2017-07-30 13:00:00 30.4 7 Oeste 19 Oeste 0 982 -0.4 34
2017-07-30 12:00:00 28.9 6 Sudoeste 14 Sudoeste 0 982.3 -0.4 38
2017-07-30 11:00:00 26.4 4 Oeste 18 Oeste 0 982.5 -0.1 48
2017-07-30 10:00:00 24 9 Sudoeste 18 Oeste 0 982.4 0.2 56
2017-07-30 09:00:00 21.1 8 Sudoeste 17 Sudoeste 0 982.7 0.6 71
2017-07-30 08:00:00 19.6 8 Sudoeste 16 Sudoeste 0 982.6 0.4 77
2017-07-30 07:00:00 20.3 9 Oeste 18 Oeste 0 982.2 -0.4 72
2017-07-30 06:00:00 21.4 7 Sudoeste 19 Oeste 0 982.1 -0.9 65
2017-07-30 05:00:00 22.6 8 Sudoeste 18 Sudoeste 0 982.2 -1 57
2017-07-30 04:00:00 24 9 Sudoeste 17 Sudoeste 0 982.6 -0.5 51
2017-07-30 03:00:00 24.7 8 Sudoeste 16 Sudoeste 0 983 -0.1 47
2017-07-30 02:00:00 25.6 5 Sudoeste 12 Oeste 0 983.2 0.5 40
2017-07-30 01:00:00 26.9 4 Sudoeste 13 Oeste 0 983.1 1 34
2017-07-30 00:00:00 28.8 6 Oeste 15 Oeste 0 983.1 1.1 28
2017-07-29 23:00:00 29.5 6 Sudoeste 14 Sudoeste 0 982.7 0.7 26
2017-07-29 22:00:00 32.1 6 Sudoeste 15 Sudoeste 0 982.1 -0.2 21
2017-07-29 21:00:00 35.6 8 Sudoeste 21 Sudoeste 0 982 -0.7 17
2017-07-29 20:00:00 37.7 10 Sudoeste 28 Sudoeste 0 982 -1.1 16
2017-07-29 19:00:00 38.6 12 Sudoeste 27 Oeste 0 982.3 -1.5 18
2017-07-29 18:00:00 38.9 13 Sudoeste 28 Sudoeste 0 982.7 -1.6 17
2017-07-29 17:00:00 38.4 11 Sudoeste 26 Sudoeste 0 983.1 -1.8 18
2017-07-29 16:00:00 37.6 9 Sudoeste 23 Oeste 0 983.8 -1.3 21
2017-07-29 15:00:00 35.9 7 Sudoeste 18 Sudoeste 0 984.3 -1.3 23
2017-07-29 14:00:00 33.2 7 Oeste 17 Sudoeste 0 984.9 -0.5 27
2017-07-29 13:00:00 31.8 5 Sur 21 Oeste 0 985.1 -0.3 33
2017-07-29 12:00:00 29.1 6 Sudoeste 18 Oeste 0 985.6 0.6 41
2017-07-29 11:00:00 26.7 8 Oeste 19 Sudoeste 0 985.4 0.9 47
2017-07-29 10:00:00 24.4 8 Sudoeste 20 Sudoeste 0 985.4 1.1 54
2017-07-29 09:00:00 21.7 8 Sudoeste 16 Sudoeste 0 985 0.9 64
2017-07-29 08:00:00 19.8 7 Sudoeste 17 Sudoeste 0 984.5 0.8 68
2017-07-29 07:00:00 19.4 7 Sudoeste 15 Sudoeste 0 984.3 0.4 69
2017-07-29 06:00:00 20.1 9 Sudoeste 16 Oeste 0 984.1 0.1 65
2017-07-29 05:00:00 20.9 5 Sudoeste 15 Oeste 0 983.7 -0.3 59
2017-07-29 04:00:00 22.1 3 Sudoeste 14 Oeste 0 983.9 0.1 53
2017-07-29 03:00:00 23 7 Sudoeste 14 Sudoeste 0 984 0.4 49
2017-07-29 02:00:00 24 8 Sudoeste 14 Sudoeste 0 984 0.7 43
2017-07-29 01:00:00 25 7 Sudoeste 15 Sudoeste 0 983.8 1.3 35
2017-07-29 00:00:00 26.6 3 Sudoeste 9 Oeste 0 983.6 1.4 32
2017-07-28 23:00:00 28.7 3 Sudoeste 14 Sudoeste 0 983.3 1.2 26
2017-07-28 22:00:00 31.3 4 Sudoeste 16 Oeste 0 982.5 0.5 21
2017-07-28 21:00:00 35.9 8 Oeste 18 Sudoeste 0 982.2 -0.2 14
2017-07-28 20:00:00 39.2 10 Sudoeste 23 Sudoeste 0 982.1 -0.7 10
2017-07-28 19:00:00 39.6 10 Oeste 26 Oeste 0 982 -1.3 10
2017-07-28 18:00:00 39.3 13 Oeste 23 Sudoeste 0 982.4 -1.5 9
2017-07-28 17:00:00 39.1 11 Oeste 24 Oeste 0 982.8 -1.7 13
2017-07-28 16:00:00 38 7 Sudoeste 20 Sudoeste 0 983.3 -1.4 16
2017-07-28 15:00:00 36.1 7 Oeste 16 Sudoeste 0 983.9 -0.9 19
2017-07-28 14:00:00 33.6 6 Oeste 15 Oeste 0 984.5 -0.3 27
2017-07-28 13:00:00 30.3 5 Oeste 15 Oeste 0 984.7 -0.2 34
2017-07-28 12:00:00 27 8 Oeste 17 Oeste 0 984.8 0.3 44
2017-07-28 11:00:00 25.3 7 Oeste 17 Sudoeste 0 984.8 0.7 49
2017-07-28 10:00:00 23.3 8 Sudoeste 17 Sudoeste 0 984.9 1.2 58
2017-07-28 09:00:00 20 9 Oeste 20 Sudoeste 0 984.5 1 71
2017-07-28 08:00:00 19.1 9 Sudoeste 22 Sudoeste 0 984.1 0.8 73
2017-07-28 07:00:00 19.4 9 Sudoeste 21 Oeste 0 983.7 0.4 73
2017-07-28 06:00:00 20.3 10 Sudoeste 21 Sudoeste 0 983.5 0.5 68
2017-07-28 05:00:00 21.3 10 Sudoeste 22 Sudoeste 0 983.3 0.5 64
2017-07-28 04:00:00 22.5 10 Sudoeste 19 Sudoeste 0 983.3 0.9 57
2017-07-28 03:00:00 23.7 8 Sudoeste 25 Oeste 0 983 1.1 52
2017-07-28 02:00:00 25 10 Sudoeste 21 Oeste 0 982.8 1.4 44
2017-07-28 01:00:00 25.7 6 Sudoeste 15 Sudoeste 0 982.4 1.6 32
2017-07-28 00:00:00 26.7 5 Sudoeste -- -- -- 981.9 1.6 27
2017-07-27 23:00:00 28.2 6 Sudoeste 13 Sudoeste 0 981.4 1.2 28
2017-07-27 22:00:00 30 2 Sudoeste 12 Oeste 0 980.8 0.4 33
2017-07-27 21:00:00 33.4 5 Oeste 17 Oeste 0 980.3 -0.5 23
2017-07-27 20:00:00 36.7 6 Oeste 18 Oeste 0 980.2 -1 20
2017-07-27 19:00:00 38.1 7 Oeste 30 Noroeste 0 980.4 -1.3 15
2017-07-27 18:00:00 37.9 13 Noroeste 28 Oeste 0 980.8 -1.5 14
2017-07-27 17:00:00 38.1 11 Oeste 23 Noroeste 0 981.2 -1.6 13
2017-07-27 16:00:00 38.2 9 Oeste 21 Oeste 0 981.7 -1.4 16
2017-07-27 15:00:00 36.2 8 Oeste 21 Sudoeste 0 982.3 -1 21
2017-07-27 14:00:00 33.6 9 Oeste 20 Oeste 0 982.8 -0.5 22
2017-07-27 13:00:00 31.8 8 Oeste 16 Noroeste 0 983.1 -0.2 26
2017-07-27 12:00:00 29.7 6 Oeste 17 Sudoeste 0 983.3 0.3 28
2017-07-27 11:00:00 27.8 9 Oeste 18 Sudoeste 0 983.3 0.7 29
2017-07-27 10:00:00 25.5 8 Oeste 18 Oeste 0 983.3 -- 32
2017-07-27 09:00:00 23.1 6 Sudoeste 13 Sudoeste 0 983 -- 38
2017-07-27 08:00:00 20.9 6 Sudoeste -- -- -- 982.6 -- 46
2017-07-27 07:00:00 -- -- -- -- -- -- -- -- --
2017-07-27 06:00:00 -- -- -- -- -- -- -- -- --
2017-07-27 05:00:00 -- -- -- -- -- -- -- -- --
2017-07-27 04:00:00 -- -- -- -- -- -- -- -- --
2017-07-27 03:00:00 -- -- -- -- -- -- -- -- --
2017-07-27 02:00:00 -- -- -- -- -- -- -- -- --
2017-07-27 01:00:00 -- -- -- -- -- -- -- -- --
2017-07-27 00:00:00 -- -- -- -- -- -- -- -- --
2017-07-26 23:00:00 30.9 3 Sudoeste -- -- -- 981.1 1 22
2017-07-26 22:00:00 32.6 -- -- -- -- 0 980.7 0.3 19
2017-07-26 21:00:00 36.2 -- -- -- -- -- 980.3 -0.4 17
2017-07-26 20:00:00 37.9 4 Noroeste 11 Sudoeste 0 980.1 -1.1 13
2017-07-26 19:00:00 38.9 5 Sur 13 Norte 0 980.4 -1.3 11
2017-07-26 18:00:00 37.2 7 Noroeste 19 Noroeste 0 980.7 -1.3 12
2017-07-26 17:00:00 36.8 10 Noroeste 21 Noroeste 0 981.2 -1.4 13
2017-07-26 16:00:00 36.1 8 Norte 23 Norte 0 981.7 -1.1 14
2017-07-26 15:00:00 35.1 10 Norte 22 Norte 0 982 -1 17
2017-07-26 14:00:00 34.6 7 Norte 23 Norte 0 982.6 -0.5 22
2017-07-26 13:00:00 33.1 8 Norte 21 Nordeste 0 982.8 -0.2 21
2017-07-26 12:00:00 33 6 Este 19 Sudeste 0 983 0.1 17
2017-07-26 11:00:00 30.9 6 Este 21 Nordeste 0 983.1 -- 19
2017-07-26 10:00:00 27.3 4 Este 13 Nordeste 0 983 -- 26
2017-07-26 09:00:00 22.7 5 Nordeste -- -- -- 982.9 -- 35
2017-07-26 08:00:00 -- -- -- -- -- -- -- -- --
2017-07-26 07:00:00 -- -- -- -- -- -- -- -- --
2017-07-26 06:00:00 -- -- -- -- -- -- -- -- --
2017-07-26 05:00:00 -- -- -- -- -- -- -- -- --
2017-07-26 04:00:00 -- -- -- -- -- -- -- -- --
2017-07-26 03:00:00 -- -- -- -- -- -- -- -- --
2017-07-26 02:00:00 -- -- -- -- -- -- -- -- --
2017-07-26 01:00:00 -- -- -- -- -- -- -- -- --
2017-07-26 00:00:00 -- -- -- -- -- -- -- -- --
2017-07-25 23:00:00 -- -- -- -- -- -- -- -- --
2017-07-25 22:00:00 -- -- -- -- -- -- -- -- --
2017-07-25 21:00:00 -- -- -- -- -- -- -- -- --
2017-07-25 20:00:00 -- -- -- -- -- -- -- -- --
2017-07-25 19:00:00 -- -- -- -- -- -- -- -- --
2017-07-25 18:00:00 -- -- -- -- -- -- -- -- --
2017-07-25 17:00:00 -- -- -- -- -- -- -- -- --
2017-07-25 16:00:00 -- -- -- -- -- -- -- -- --
2017-07-25 15:00:00 -- -- -- -- -- -- -- -- --
2017-07-25 14:00:00 -- -- -- -- -- -- -- -- --
2017-07-25 13:00:00 -- -- -- -- -- -- -- -- --
2017-07-25 12:00:00 -- -- -- -- -- -- -- -- --
2017-07-25 11:00:00 26.8 4 Norte 9 Norte 0 983.7 0.2 43
2017-07-25 10:00:00 24.7 2 Oeste 10 Oeste 0 983.9 0.6 46
2017-07-25 09:00:00 21.1 5 Sudoeste 12 Oeste 0 983.8 0.8 58
2017-07-25 08:00:00 19.1 3 Sudoeste 11 Sudoeste 0 983.5 0.5 63
2017-07-25 07:00:00 19.2 4 Sudoeste -- -- -- 983.3 0 63
2017-07-25 06:00:00 19.9 5 Sudoeste 11 Sudoeste 0 983 -0.7 61
2017-07-25 05:00:00 20.6 5 Sudoeste 13 Sudoeste 0 983 -0.7 57
2017-07-25 04:00:00 21.7 5 Sudoeste 12 Sudoeste 0 983.3 -0.5 55
2017-07-25 03:00:00 22.8 6 Sudoeste 12 Sudoeste 0 983.7 -0.1 50
2017-07-25 02:00:00 23.9 7 Sudoeste 13 Sudoeste 0 983.7 0.1 42
2017-07-25 01:00:00 25.2 6 Sudoeste 14 Sur 0 983.8 0.5 33
2017-07-25 00:00:00 27.3 5 Noroeste 14 Norte 0 983.8 0.7 30
2017-07-24 23:00:00 28.8 4 Noroeste 13 Noroeste 0 983.6 0.5 27
2017-07-24 22:00:00 30.4 5 Noroeste 19 Noroeste 0 983.3 -0.1 26
2017-07-24 21:00:00 33.3 7 Noroeste 19 Noroeste 0 983.1 -0.5 25
2017-07-24 20:00:00 35.2 10 Noroeste 22 Noroeste 0 983.1 -1 21
2017-07-24 19:00:00 36 9 Noroeste 24 Noroeste 0 983.4 -1.5 18
2017-07-24 18:00:00 36.1 8 Noroeste 23 Noroeste 0 983.6 -1.9 17
2017-07-24 17:00:00 35.3 10 Oeste 25 Noroeste 0 984.1 -1.9 19
2017-07-24 16:00:00 34.6 5 Norte 27 Noroeste 0 984.9 -1.6 24
2017-07-24 15:00:00 33.7 10 Noroeste 26 Noroeste 0 985.5 -1.2 22
2017-07-24 14:00:00 32.1 11 Oeste 27 Noroeste 0 986 -0.9 24
2017-07-24 13:00:00 31.6 10 Sudoeste 25 Sudoeste 0 986.5 -0.5 30
2017-07-24 12:00:00 28.9 12 Oeste 26 Noroeste 0 986.7 -0.2 37
2017-07-24 11:00:00 26.7 10 Oeste 24 Sudoeste 0 986.9 0.3 44
2017-07-24 10:00:00 24.5 10 Sudoeste 24 Sudoeste 0 987 -- 50
2017-07-24 09:00:00 21 10 Oeste 19 Sudoeste 0 986.9 0.5 64
2017-07-24 08:00:00 19.4 6 Sudoeste -- -- -- 986.6 0.4 70
2017-07-24 07:00:00 -- -- -- -- -- -- -- -- --
2017-07-24 06:00:00 20.9 9 Oeste 22 Oeste 0 986.4 -0.1 61
2017-07-24 05:00:00 21.4 10 Oeste 22 Oeste 0 986.2 -0.2 58
2017-07-24 04:00:00 22.5 11 Sudoeste 22 Sudoeste 0 986.2 0 50
2017-07-24 03:00:00 22.5 7 Sudoeste 14 Sudoeste 0 986.5 0.9 49
2017-07-24 02:00:00 23.4 6 Sudoeste 12 Oeste 0 986.4 1.3 46
2017-07-24 01:00:00 24.5 5 Oeste 19 Oeste 0 986.2 1.6 44
2017-07-24 00:00:00 25.6 6 Sudoeste 15 Sudoeste 0 985.6 1.3 40
2017-07-23 23:00:00 27.5 5 Sudoeste 17 Sudoeste 0 985.1 0.8 34
2017-07-23 22:00:00 29.1 2 Sudoeste 12 Oeste 0 984.6 0.2 33
2017-07-23 21:00:00 34.1 6 Sudoeste 18 Oeste 0 984.3 -0.3 22
2017-07-23 20:00:00 36 9 Sudoeste 22 Oeste 0 984.3 -0.9 17
2017-07-23 19:00:00 36.8 11 Sudoeste 23 Oeste 0 984.4 -1.3 14
2017-07-23 18:00:00 36.3 9 Oeste 23 Sudoeste 0 984.6 -1.6 15
2017-07-23 17:00:00 36.5 8 Sudoeste 19 Sudoeste 0 985.2 -1.5 14
2017-07-23 16:00:00 36 5 Sudoeste 19 Noroeste 0 985.7 -1.3 14
2017-07-23 15:00:00 33.8 7 Oeste 18 Noroeste 0 986.2 -0.7 24
2017-07-23 14:00:00 31 6 Oeste 14 Sudoeste 0 986.7 0 30
2017-07-23 13:00:00 29 7 Sudoeste 16 Sudoeste 0 987 0.5 33
2017-07-23 12:00:00 26 5 Oeste 15 Noroeste 0 986.9 0.9 44
2017-07-23 11:00:00 23.3 6 Oeste 17 Oeste 0 986.7 1.1 50
2017-07-23 10:00:00 21.3 9 Oeste 19 Oeste 0 986.5 1.3 57
2017-07-23 09:00:00 18.7 12 Sudoeste 21 Sudoeste 0 986 1.3 66
2017-07-23 08:00:00 16.9 7 Sudoeste 15 Sudoeste 0 985.6 1.1 72
2017-07-23 07:00:00 17.2 8 Sudoeste 23 Sudoeste 0 985.2 0.8 71
2017-07-23 06:00:00 18.1 10 Sudoeste 21 Sudoeste 0 984.7 0.1 68
2017-07-23 05:00:00 19.1 11 Sudoeste 22 Sudoeste 0 984.5 0.2 64
2017-07-23 04:00:00 20 9 Sudoeste 21 Sudoeste 0 984.4 0.6 61
2017-07-23 03:00:00 21.1 9 Sudoeste 21 Oeste 0 984.6 1.2 57
2017-07-23 02:00:00 22 8 Sudoeste 18 Sudoeste 0 984.3 1.6 52
2017-07-23 01:00:00 22.5 8 Sudoeste 14 Sudoeste 0 983.8 1.7 42
2017-07-23 00:00:00 23.9 6 Sudoeste 10 Sudoeste 0 983.4 1.7 36
2017-07-22 23:00:00 25.8 3 Sudoeste 10 Oeste 0 982.7 1 37
2017-07-22 22:00:00 27.7 4 Sudoeste 8 Oeste 0 982.1 0.4 33
2017-07-22 21:00:00 32.3 2 Sudoeste 14 Oeste 0 981.7 -0.4 20
2017-07-22 20:00:00 34.3 6 Oeste 15 Sudoeste 0 981.7 -0.7 14
2017-07-22 19:00:00 34.4 7 Oeste 18 Oeste 0 981.7 -1 14
2017-07-22 18:00:00 33.1 8 Oeste 20 Noroeste 0 982.1 -1 17
2017-07-22 17:00:00 32.7 8 Noroeste 22 Oeste 0 982.4 -1 13
2017-07-22 16:00:00 31.4 10 Noroeste 21 Noroeste 0 982.7 -1 17
2017-07-22 15:00:00 31.3 8 Oeste 18 Sudoeste 0 983.1 -0.8 20
2017-07-22 14:00:00 28.6 6 Oeste 15 Oeste 0 983.4 -0.5 30
2017-07-22 13:00:00 26.6 7 Oeste 21 Noroeste 0 983.7 -0.1 38
2017-07-22 12:00:00 23.6 7 Oeste 15 Noroeste 0 983.9 0.8 43
2017-07-22 11:00:00 22.2 8 Oeste 17 Sudoeste 0 983.9 1 49
2017-07-22 10:00:00 19.7 8 Sudoeste 18 Sudoeste 0 983.8 1.4 57
2017-07-22 09:00:00 16.7 9 Sudoeste 20 Sudoeste 0 983.1 1.1 68
2017-07-22 08:00:00 15.5 9 Sudoeste 18 Sudoeste 0 982.9 1.1 70
2017-07-22 07:00:00 16.1 9 Sudoeste 20 Sudoeste 0 982.4 1 65
2017-07-22 06:00:00 16.7 9 Sudoeste 21 Sudoeste 0 982 0.5 62
2017-07-22 05:00:00 17.4 9 Sudoeste 21 Sudoeste 0 981.8 0.3 60
2017-07-22 04:00:00 18.3 10 Sudoeste 22 Sudoeste 0 981.4 0.1 56
2017-07-22 03:00:00 19.4 10 Sudoeste 24 Sudoeste 0 981.5 0.5 51
2017-07-22 02:00:00 20.2 9 Sudoeste 19 Sudoeste 0 981.5 0.9 48
2017-07-22 01:00:00 21.1 8 Sudoeste 15 Sudoeste 0 981.3 1.2 46
2017-07-22 00:00:00 22.8 7 Oeste 17 Sudoeste 0 981 1.4 39